»·PEaware :: N101JP KSAN-KVNY

N101JP :: KSAN-KVNY

FLIGHT INFORMATION

Flight Status: Arrived
Operator: Privately registered:
United States
More flights under this callsign
Pilot: James T. (870)
Aircraft: PILATUS PC-12 EAGLE
(PC12)
More flights by this aircraft type
Origin: KSAN San Diego Intl-Lindbergh
United States
Destination: KVNY Van Nuys
United States
More flights between these airports :: More routes between these airports
Route: PEBLE4 SLI V23 LAX LAX320 CANOG
File this flight plan on PilotEdge
Remarks:
Altitude:
(Current/Filed)
80ft
Speed:
(Current/Filed)
200kts
Departed: 06-Mar-15 08:45 AM
Arrived: 06-Mar-15 09:35 AM
Distance/Time
Traveled:
110nm/0:50
Distance/Time
To Go:
Arrived

Flight Plot

Page will automatically refresh every two minutes.


Map Options




Map Legend


Flown Route
Filed Route
Departure Airport
Arrival Airport
Navaid (VOR, NDB)
Fix

Horizontal Profiles

Position Reports

Time Latitude Longitude Heading Altitude Ground
Speed
06-Mar-15 08:27 32.732106 -117.177472 117 23ft 0kts
06-Mar-15 08:28 32.732106 -117.177472 117 23ft 0kts
06-Mar-15 08:29 32.732106 -117.177472 117 23ft 0kts
06-Mar-15 08:30 32.732106 -117.177472 117 23ft 0kts
06-Mar-15 08:31 32.732106 -117.177472 117 23ft 0kts
06-Mar-15 08:32 32.732106 -117.177472 117 23ft 0kts
06-Mar-15 08:33 32.732106 -117.177472 117 23ft 0kts
06-Mar-15 08:34 32.732106 -117.177472 117 23ft 0kts
06-Mar-15 08:35 32.732106 -117.177472 117 23ft 0kts
06-Mar-15 08:36 32.732106 -117.177472 117 23ft 0kts
06-Mar-15 08:37 32.731895 -117.176851 105 22ft 5kts
06-Mar-15 08:38 32.731263 -117.175582 141 23ft 6kts
06-Mar-15 08:39 32.733313 -117.188591 287 124ft 132kts
06-Mar-15 08:40 32.751231 -117.235157 301 1796ft 163kts
06-Mar-15 08:41 32.775061 -117.281121 304 3613ft 165kts
06-Mar-15 08:42 32.800811 -117.326283 304 5408ft 166kts
06-Mar-15 08:43 32.826936 -117.371848 304 7175ft 168kts
06-Mar-15 08:44 32.855326 -117.421785 304 7984ft 212kts
06-Mar-15 08:45 32.895946 -117.477943 331 7976ft 236kts
06-Mar-15 08:46 32.951402 -117.521499 327 7975ft 240kts
06-Mar-15 08:47 33.006469 -117.567124 316 7960ft 243kts
06-Mar-15 08:48 33.047065 -117.631377 309 7978ft 243kts
06-Mar-15 08:49 33.088763 -117.694756 309 7971ft 243kts
06-Mar-15 08:50 33.130474 -117.758199 309 7984ft 242kts
06-Mar-15 08:51 33.171900 -117.821273 308 7990ft 241kts
06-Mar-15 08:52 33.230814 -117.853934 344 7991ft 240kts
06-Mar-15 08:53 33.294600 -117.877156 343 7995ft 240kts
06-Mar-15 08:54 33.358550 -117.900418 343 7995ft 240kts
06-Mar-15 08:55 33.422596 -117.923709 343 7992ft 241kts
06-Mar-15 08:56 33.486961 -117.947141 343 7991ft 242kts
06-Mar-15 08:57 33.551097 -117.970520 343 7993ft 241kts
06-Mar-15 08:58 33.613132 -117.993157 343 7996ft 241kts
06-Mar-15 08:59 33.677186 -118.016570 343 7997ft 241kts
06-Mar-15 09:00 33.741307 -118.040037 343 7998ft 240kts
06-Mar-15 09:01 33.791061 -118.084342 282 8009ft 243kts
06-Mar-15 09:02 33.809174 -118.155696 287 7998ft 215kts
06-Mar-15 09:03 33.826312 -118.223124 287 7986ft 207kts
06-Mar-15 09:04 33.842962 -118.288930 287 7991ft 203kts
06-Mar-15 09:05 33.860211 -118.353612 303 7977ft 203kts
06-Mar-15 09:06 33.901631 -118.398099 319 7536ft 209kts
06-Mar-15 09:07 33.949966 -118.440994 335 6055ft 222kts
06-Mar-15 09:08 34.005339 -118.472229 335 4993ft 205kts
06-Mar-15 09:09 34.052627 -118.498676 336 4983ft 175kts
06-Mar-15 09:10 34.095036 -118.522371 337 5006ft 165kts
06-Mar-15 09:11 34.133387 -118.543794 336 5004ft 155kts
06-Mar-15 09:12 34.174805 -118.552524 354 5003ft 149kts
06-Mar-15 09:13 34.215253 -118.559057 355 4999ft 143kts
06-Mar-15 09:14 34.254174 -118.565752 351 4998ft 140kts
06-Mar-15 09:15 34.293184 -118.571570 354 5015ft 140kts
06-Mar-15 09:16 34.331328 -118.576151 355 5029ft 135kts
06-Mar-15 09:17 34.371879 -118.580190 354 5038ft 154kts
06-Mar-15 09:18 34.414919 -118.583913 355 5035ft 154kts
06-Mar-15 09:19 34.457073 -118.587119 354 5021ft 146kts
06-Mar-15 09:20 34.496448 -118.588224 20 5055ft 142kts
06-Mar-15 09:21 34.487307 -118.548081 134 5076ft 157kts
06-Mar-15 09:22 34.456635 -118.514377 143 4771ft 160kts
06-Mar-15 09:23 34.412520 -118.509500 177 4332ft 151kts
06-Mar-15 09:24 34.371072 -118.505678 174 4336ft 149kts
06-Mar-15 09:25 34.327931 -118.501575 175 3736ft 163kts
06-Mar-15 09:26 34.285102 -118.497457 174 2646ft 146kts
06-Mar-15 09:27 34.246124 -118.493805 174 1659ft 133kts
06-Mar-15 09:28 34.212361 -118.490546 173 808ft 107kts
06-Mar-15 09:29 34.206746 -118.488869 82 808ft 7kts

Navigation Log

Ident Type
Flight plan parsing failed, navigation log unavailable